LGAD/PYR METAR and TAF weather

Enter ICAO airport designator
Station Type Date Time Source
LGAD METAR 2022/11/27 07:20 UTC NOAA

LGAD 270720Z 00000KT 9999 FEW020 BKN080 12/08 Q1017


Station Type Date Time Source
LGAD Decoded METAR 2022/11/27 07:20 UTC NOAA

Andravida Airport , Greece (LGAD) 37-55N 021-17E 14M
Nov 27, 2022 - 02:20 AM EST / 2022.11.27 0720 UTC
Wind: Calm:0
Visibility: greater than 7 mile(s):0
Sky conditions: mostly cloudy
Temperature: 53 F (12 C)
Dew Point: 46 F (8 C)
Relative Humidity: 76%
Pressure (altimeter): 30.03 in. Hg (1017 hPa)
ob: LGAD 270720Z 00000KT 9999 FEW020 BKN080 12/08 Q1017
cycle: 7

Station Type Date Time Source
LGAD TAF 2020/03/18 09:39 UTC NOAA

TAF TAF LGAD 180800Z 1809/1821 30006KT 9999 FEW030
BECMG 1816/1818 07010KT

Example: see airport list